4XCDE LLHZ-LLHA
Flight info
| Callsign | 4XCDE |
|---|---|
| Flight time | N/A |
| Altitude | 1200 |
| Route | /EZORIM |
| Aircraft | C172/L-S/L |
Departure
| Time | 2026-04-24 21:33 |
|---|---|
| Airport | Herzliya Airport (LLHZ) |
Arrival
| Time | N/A |
|---|---|
| Airport | Uri Michaeli Haifa International Airport (LLHA) |
| Time | Latitude | Longitude | Altitude | Speed | Heading |
|---|---|---|---|---|---|
| 2026-04-24 21:28 | 32.17893 | 34.83739 | 119 ft | 0 kts | 109° |
| 2026-04-24 21:30 | 32.17876 | 34.83796 | 122 ft | 15 kts | 111° |
| 2026-04-24 21:31 | 32.17878 | 34.83853 | 122 ft | 0 kts | 48° |
| 2026-04-24 21:31 | 32.17918 | 34.83846 | 125 ft | 11 kts | 299° |
| 2026-04-24 21:31 | 32.17935 | 34.83791 | 122 ft | 0 kts | 291° |
| 2026-04-24 21:32 | 32.17942 | 34.83765 | 122 ft | 20 kts | 290° |
| 2026-04-24 21:32 | 32.18050 | 34.83392 | 105 ft | 73 kts | 290° |
| 2026-04-24 21:32 | 32.18203 | 34.82841 | 353 ft | 66 kts | 295° |
| 2026-04-24 21:33 | 32.18590 | 34.82731 | 435 ft | 75 kts | 7° |
| 2026-04-24 21:33 | 32.18935 | 34.82869 | 550 ft | 83 kts | 31° |
| 2026-04-24 21:33 | 32.18965 | 34.83855 | 714 ft | 98 kts | 95° |
| 2026-04-24 21:33 | 32.18869 | 34.84623 | 888 ft | 99 kts | 89° |
| 2026-04-24 21:34 | 32.18720 | 34.85436 | 940 ft | 106 kts | 136° |
| 2026-04-24 21:34 | 32.18009 | 34.85389 | 698 ft | 101 kts | 198° |
| 2026-04-24 21:34 | 32.17620 | 34.84886 | 488 ft | 76 kts | 267° |
| 2026-04-24 21:34 | 32.17765 | 34.84348 | 297 ft | 67 kts | 303° |
| 2026-04-24 21:35 | 32.17917 | 34.83838 | 138 ft | 65 kts | 297° |
| 2026-04-24 21:35 | 32.18058 | 34.83369 | 104 ft | 69 kts | 287° |
| 2026-04-24 21:35 | 32.18209 | 34.82790 | 332 ft | 64 kts | 299° |
| 2026-04-24 21:35 | 32.18619 | 34.82734 | 412 ft | 76 kts | 19° |
| 2026-04-24 21:36 | 32.19074 | 34.83014 | 597 ft | 80 kts | 35° |
| 2026-04-24 21:36 | 32.19122 | 34.83668 | 694 ft | 94 kts | 95° |
| 2026-04-24 21:36 | 32.18951 | 34.84436 | 701 ft | 93 kts | 102° |
| 2026-04-24 21:36 | 32.18696 | 34.85083 | 663 ft | 84 kts | 118° |
| 2026-04-24 21:37 | 32.18228 | 34.85443 | 672 ft | 89 kts | 175° |
| 2026-04-24 21:37 | 32.17680 | 34.85162 | 559 ft | 86 kts | 240° |
| 2026-04-24 21:37 | 32.17684 | 34.84558 | 401 ft | 77 kts | 299° |
| 2026-04-24 21:37 | 32.17875 | 34.83957 | 173 ft | 77 kts | 296° |
| 2026-04-24 21:38 | 32.18048 | 34.83416 | 105 ft | 73 kts | 286° |
| 2026-04-24 21:38 | 32.18195 | 34.82860 | 375 ft | 59 kts | 309° |
| 2026-04-24 21:38 | 32.18599 | 34.82767 | 523 ft | 66 kts | 5° |
| 2026-04-24 21:38 | 32.19089 | 34.82884 | 676 ft | 74 kts | 14° |
| 2026-04-24 21:39 | 32.19224 | 34.83411 | 730 ft | 96 kts | 99° |
| 2026-04-24 21:39 | 32.18995 | 34.84208 | 706 ft | 100 kts | 104° |
| 2026-04-24 21:39 | 32.18752 | 34.84886 | 683 ft | 84 kts | 107° |
| 2026-04-24 21:39 | 32.18417 | 34.85415 | 640 ft | 78 kts | 149° |
| 2026-04-24 21:40 | 32.17885 | 34.85302 | 528 ft | 80 kts | 220° |
| 2026-04-24 21:40 | 32.17620 | 34.84820 | 450 ft | 66 kts | 278° |
| 2026-04-24 21:40 | 32.17776 | 34.84296 | 284 ft | 71 kts | 294° |
| 2026-04-24 21:40 | 32.17935 | 34.83774 | 131 ft | 62 kts | 295° |
| 2026-04-24 21:41 | 32.18079 | 34.83284 | 102 ft | 79 kts | 289° |
| 2026-04-24 21:41 | 32.18328 | 34.82801 | 354 ft | 65 kts | 333° |
| 2026-04-24 21:41 | 32.18785 | 34.82744 | 512 ft | 77 kts | 355° |
| 2026-04-24 21:41 | 32.19282 | 34.82970 | 669 ft | 84 kts | 41° |
| 2026-04-24 21:42 | 32.19457 | 34.83393 | 742 ft | 96 kts | 88° |
| 2026-04-24 21:42 | 32.19119 | 34.84180 | 736 ft | 106 kts | 118° |
| 2026-04-24 21:42 | 32.18757 | 34.84830 | 625 ft | 88 kts | 120° |
| 2026-04-24 21:42 | 32.18419 | 34.85370 | 562 ft | 80 kts | 133° |
| 2026-04-24 21:43 | 32.17905 | 34.85351 | 466 ft | 83 kts | 219° |
| 2026-04-24 21:43 | 32.17647 | 34.84812 | 408 ft | 71 kts | 272° |
| 2026-04-24 21:43 | 32.17789 | 34.84271 | 269 ft | 70 kts | 300° |
| 2026-04-24 21:43 | 32.17937 | 34.83767 | 127 ft | 61 kts | 294° |
| 2026-04-24 21:44 | 32.18048 | 34.83420 | 106 ft | 35 kts | 284° |
| 2026-04-24 21:44 | 32.18126 | 34.83155 | 99 ft | 33 kts | 291° |
| 2026-04-24 21:44 | 32.18122 | 34.83035 | 99 ft | 10 kts | 307° |
| 2026-04-24 21:44 | 32.18156 | 34.82962 | 97 ft | 10 kts | 287° |
| 2026-04-24 21:45 | 32.18177 | 34.82890 | 97 ft | 7 kts | 295° |
| 2026-04-24 21:45 | 32.18192 | 34.82839 | 97 ft | 6 kts | 288° |
| 2026-04-24 21:45 | 32.18193 | 34.82799 | 97 ft | 5 kts | 255° |
| 2026-04-24 21:45 | 32.18176 | 34.82788 | 96 ft | 5 kts | 131° |
| 2026-04-24 21:46 | 32.18174 | 34.82792 | 97 ft | 0 kts | 102° |